sensor_id;sensor_type;location;lat;lon;timestamp;P1;durP1;ratioP1;P2;durP2;ratioP2
59907;SDS011;61804;54.926;73.496;2023-11-22T00:00:10;5.85;;;5.25;;
59907;SDS011;61804;54.926;73.496;2023-11-22T00:02:37;5.50;;;4.25;;
59907;SDS011;61804;54.926;73.496;2023-11-22T00:05:05;7.82;;;4.57;;
59907;SDS011;61804;54.926;73.496;2023-11-22T00:07:33;8.48;;;5.10;;
59907;SDS011;61804;54.926;73.496;2023-11-22T00:10:01;2.40;;;2.15;;
59907;SDS011;61804;54.926;73.496;2023-11-22T00:12:29;7.65;;;3.67;;
59907;SDS011;61804;54.926;73.496;2023-11-22T00:15:03;8.93;;;3.63;;
59907;SDS011;61804;54.926;73.496;2023-11-22T00:17:32;5.85;;;3.55;;
59907;SDS011;61804;54.926;73.496;2023-11-22T00:20:00;6.13;;;4.45;;
59907;SDS011;61804;54.926;73.496;2023-11-22T00:22:32;6.82;;;3.85;;
59907;SDS011;61804;54.926;73.496;2023-11-22T00:24:59;11.48;;;7.43;;
59907;SDS011;61804;54.926;73.496;2023-11-22T00:27:29;7.15;;;4.60;;
59907;SDS011;61804;54.926;73.496;2023-11-22T00:29:59;9.52;;;5.18;;
59907;SDS011;61804;54.926;73.496;2023-11-22T00:32:26;12.68;;;4.93;;
59907;SDS011;61804;54.926;73.496;2023-11-22T00:34:53;7.93;;;3.25;;
59907;SDS011;61804;54.926;73.496;2023-11-22T00:37:21;8.32;;;5.15;;
59907;SDS011;61804;54.926;73.496;2023-11-22T00:39:48;12.93;;;6.38;;
59907;SDS011;61804;54.926;73.496;2023-11-22T00:42:15;9.70;;;5.38;;
59907;SDS011;61804;54.926;73.496;2023-11-22T00:44:47;6.13;;;3.80;;
59907;SDS011;61804;54.926;73.496;2023-11-22T00:47:15;8.10;;;3.50;;
59907;SDS011;61804;54.926;73.496;2023-11-22T00:49:43;4.55;;;3.42;;
59907;SDS011;61804;54.926;73.496;2023-11-22T00:52:10;3.15;;;2.58;;
59907;SDS011;61804;54.926;73.496;2023-11-22T00:54:38;6.78;;;4.20;;
59907;SDS011;61804;54.926;73.496;2023-11-22T00:57:05;7.70;;;4.63;;
59907;SDS011;61804;54.926;73.496;2023-11-22T00:59:33;7.82;;;4.10;;
59907;SDS011;61804;54.926;73.496;2023-11-22T01:02:01;9.63;;;5.78;;
59907;SDS011;61804;54.926;73.496;2023-11-22T01:04:30;5.30;;;3.75;;
59907;SDS011;61804;54.926;73.496;2023-11-22T01:07:01;3.38;;;2.55;;
59907;SDS011;61804;54.926;73.496;2023-11-22T01:09:28;4.15;;;2.00;;
59907;SDS011;61804;54.926;73.496;2023-11-22T01:11:55;3.72;;;2.13;;
59907;SDS011;61804;54.926;73.496;2023-11-22T01:14:23;5.53;;;3.45;;
59907;SDS011;61804;54.926;73.496;2023-11-22T01:16:50;4.03;;;2.20;;
59907;SDS011;61804;54.926;73.496;2023-11-22T01:19:17;3.85;;;2.30;;
59907;SDS011;61804;54.926;73.496;2023-11-22T01:21:45;8.18;;;2.92;;
59907;SDS011;61804;54.926;73.496;2023-11-22T01:24:12;5.55;;;3.97;;
59907;SDS011;61804;54.926;73.496;2023-11-22T01:26:40;2.17;;;1.98;;
59907;SDS011;61804;54.926;73.496;2023-11-22T01:29:07;2.63;;;1.92;;
59907;SDS011;61804;54.926;73.496;2023-11-22T01:31:35;3.88;;;2.80;;
59907;SDS011;61804;54.926;73.496;2023-11-22T01:34:02;2.30;;;1.70;;
59907;SDS011;61804;54.926;73.496;2023-11-22T01:36:31;5.03;;;3.40;;
59907;SDS011;61804;54.926;73.496;2023-11-22T01:38:58;2.03;;;1.83;;
59907;SDS011;61804;54.926;73.496;2023-11-22T01:41:25;2.80;;;1.85;;
59907;SDS011;61804;54.926;73.496;2023-11-22T01:43:53;2.90;;;2.70;;
59907;SDS011;61804;54.926;73.496;2023-11-22T01:46:22;4.82;;;2.30;;
59907;SDS011;61804;54.926;73.496;2023-11-22T01:48:50;3.00;;;2.70;;
59907;SDS011;61804;54.926;73.496;2023-11-22T01:51:21;6.72;;;1.95;;
59907;SDS011;61804;54.926;73.496;2023-11-22T01:53:49;14.00;;;2.70;;
59907;SDS011;61804;54.926;73.496;2023-11-22T01:56:20;5.13;;;2.65;;
59907;SDS011;61804;54.926;73.496;2023-11-22T01:58:48;3.20;;;2.55;;
59907;SDS011;61804;54.926;73.496;2023-11-22T02:01:16;2.47;;;2.28;;
59907;SDS011;61804;54.926;73.496;2023-11-22T02:03:45;4.32;;;2.10;;
59907;SDS011;61804;54.926;73.496;2023-11-22T02:06:17;6.00;;;2.45;;
59907;SDS011;61804;54.926;73.496;2023-11-22T02:08:44;3.00;;;2.08;;
59907;SDS011;61804;54.926;73.496;2023-11-22T02:11:12;4.15;;;2.47;;
59907;SDS011;61804;54.926;73.496;2023-11-22T02:13:41;7.03;;;1.73;;
59907;SDS011;61804;54.926;73.496;2023-11-22T02:16:08;5.22;;;3.53;;
59907;SDS011;61804;54.926;73.496;2023-11-22T02:18:35;2.70;;;2.03;;
59907;SDS011;61804;54.926;73.496;2023-11-22T02:21:03;6.63;;;2.13;;
59907;SDS011;61804;54.926;73.496;2023-11-22T02:23:31;3.20;;;1.77;;
59907;SDS011;61804;54.926;73.496;2023-11-22T02:25:59;3.03;;;2.33;;
59907;SDS011;61804;54.926;73.496;2023-11-22T02:28:27;1.38;;;1.15;;
59907;SDS011;61804;54.926;73.496;2023-11-22T02:30:54;2.28;;;1.38;;
59907;SDS011;61804;54.926;73.496;2023-11-22T02:33:22;3.17;;;2.05;;
59907;SDS011;61804;54.926;73.496;2023-11-22T02:35:49;4.93;;;2.22;;
59907;SDS011;61804;54.926;73.496;2023-11-22T02:38:17;2.53;;;2.33;;
59907;SDS011;61804;54.926;73.496;2023-11-22T02:40:45;4.60;;;1.92;;
59907;SDS011;61804;54.926;73.496;2023-11-22T02:43:15;3.55;;;1.58;;
59907;SDS011;61804;54.926;73.496;2023-11-22T02:45:44;6.72;;;2.42;;
59907;SDS011;61804;54.926;73.496;2023-11-22T02:48:11;3.70;;;2.08;;
59907;SDS011;61804;54.926;73.496;2023-11-22T02:50:40;1.65;;;1.55;;
59907;SDS011;61804;54.926;73.496;2023-11-22T02:53:10;3.17;;;2.25;;
59907;SDS011;61804;54.926;73.496;2023-11-22T02:55:38;2.47;;;1.63;;
59907;SDS011;61804;54.926;73.496;2023-11-22T02:58:06;3.67;;;1.98;;
59907;SDS011;61804;54.926;73.496;2023-11-22T03:00:34;4.40;;;2.30;;
59907;SDS011;61804;54.926;73.496;2023-11-22T03:03:01;5.82;;;2.47;;
59907;SDS011;61804;54.926;73.496;2023-11-22T03:05:31;1.73;;;1.30;;
59907;SDS011;61804;54.926;73.496;2023-11-22T03:07:58;2.80;;;1.85;;
59907;SDS011;61804;54.926;73.496;2023-11-22T03:10:25;3.65;;;1.98;;
59907;SDS011;61804;54.926;73.496;2023-11-22T03:12:53;3.20;;;2.90;;
59907;SDS011;61804;54.926;73.496;2023-11-22T03:15:21;2.03;;;1.35;;
59907;SDS011;61804;54.926;73.496;2023-11-22T03:17:49;3.03;;;2.00;;
59907;SDS011;61804;54.926;73.496;2023-11-22T03:20:16;3.47;;;3.17;;
59907;SDS011;61804;54.926;73.496;2023-11-22T03:22:43;2.53;;;1.95;;
59907;SDS011;61804;54.926;73.496;2023-11-22T03:25:12;5.45;;;2.92;;
59907;SDS011;61804;54.926;73.496;2023-11-22T03:27:40;2.55;;;2.35;;
59907;SDS011;61804;54.926;73.496;2023-11-22T03:30:08;4.10;;;2.53;;
59907;SDS011;61804;54.926;73.496;2023-11-22T03:32:38;6.78;;;2.40;;
59907;SDS011;61804;54.926;73.496;2023-11-22T03:35:06;5.45;;;2.17;;
59907;SDS011;61804;54.926;73.496;2023-11-22T03:37:34;10.93;;;2.88;;
59907;SDS011;61804;54.926;73.496;2023-11-22T03:40:01;3.70;;;2.03;;
59907;SDS011;61804;54.926;73.496;2023-11-22T03:42:30;2.78;;;1.90;;
59907;SDS011;61804;54.926;73.496;2023-11-22T03:44:58;5.28;;;2.50;;
59907;SDS011;61804;54.926;73.496;2023-11-22T03:47:26;2.33;;;1.98;;
59907;SDS011;61804;54.926;73.496;2023-11-22T03:49:54;2.67;;;2.45;;
59907;SDS011;61804;54.926;73.496;2023-11-22T03:52:21;5.25;;;2.55;;
59907;SDS011;61804;54.926;73.496;2023-11-22T03:54:48;4.82;;;3.35;;
59907;SDS011;61804;54.926;73.496;2023-11-22T03:57:16;4.57;;;3.03;;
59907;SDS011;61804;54.926;73.496;2023-11-22T03:59:44;8.02;;;4.00;;
59907;SDS011;61804;54.926;73.496;2023-11-22T04:02:11;4.75;;;3.67;;
59907;SDS011;61804;54.926;73.496;2023-11-22T04:04:39;14.18;;;5.03;;
59907;SDS011;61804;54.926;73.496;2023-11-22T04:07:07;5.60;;;4.20;;
59907;SDS011;61804;54.926;73.496;2023-11-22T04:09:35;7.18;;;4.57;;
59907;SDS011;61804;54.926;73.496;2023-11-22T04:12:02;5.95;;;2.40;;
59907;SDS011;61804;54.926;73.496;2023-11-22T04:14:30;4.47;;;3.50;;
59907;SDS011;61804;54.926;73.496;2023-11-22T04:16:58;2.67;;;2.20;;
59907;SDS011;61804;54.926;73.496;2023-11-22T04:19:25;6.10;;;3.25;;
59907;SDS011;61804;54.926;73.496;2023-11-22T04:21:52;7.90;;;3.42;;
59907;SDS011;61804;54.926;73.496;2023-11-22T04:24:20;4.10;;;3.15;;
59907;SDS011;61804;54.926;73.496;2023-11-22T04:26:48;4.60;;;2.45;;
59907;SDS011;61804;54.926;73.496;2023-11-22T04:29:15;5.82;;;3.28;;
59907;SDS011;61804;54.926;73.496;2023-11-22T04:31:43;3.70;;;2.75;;
59907;SDS011;61804;54.926;73.496;2023-11-22T04:34:10;7.55;;;3.85;;
59907;SDS011;61804;54.926;73.496;2023-11-22T04:36:38;4.30;;;3.90;;
59907;SDS011;61804;54.926;73.496;2023-11-22T04:39:06;5.68;;;3.65;;
59907;SDS011;61804;54.926;73.496;2023-11-22T04:41:37;6.43;;;4.45;;
59907;SDS011;61804;54.926;73.496;2023-11-22T04:44:04;6.60;;;5.65;;
59907;SDS011;61804;54.926;73.496;2023-11-22T04:46:32;7.03;;;5.32;;
59907;SDS011;61804;54.926;73.496;2023-11-22T04:48:59;9.88;;;5.28;;
59907;SDS011;61804;54.926;73.496;2023-11-22T04:51:27;6.43;;;5.25;;
59907;SDS011;61804;54.926;73.496;2023-11-22T04:53:55;6.40;;;4.60;;
59907;SDS011;61804;54.926;73.496;2023-11-22T04:56:23;6.88;;;4.95;;
59907;SDS011;61804;54.926;73.496;2023-11-22T04:58:50;12.60;;;8.48;;
59907;SDS011;61804;54.926;73.496;2023-11-22T05:01:17;9.38;;;8.02;;
59907;SDS011;61804;54.926;73.496;2023-11-22T05:03:45;8.98;;;5.90;;
59907;SDS011;61804;54.926;73.496;2023-11-22T05:06:12;6.55;;;4.15;;
59907;SDS011;61804;54.926;73.496;2023-11-22T05:08:40;6.78;;;5.20;;
59907;SDS011;61804;54.926;73.496;2023-11-22T05:11:07;4.47;;;3.38;;
59907;SDS011;61804;54.926;73.496;2023-11-22T05:13:36;3.70;;;3.10;;
59907;SDS011;61804;54.926;73.496;2023-11-22T05:16:03;3.95;;;3.55;;
59907;SDS011;61804;54.926;73.496;2023-11-22T05:18:31;6.82;;;3.72;;
59907;SDS011;61804;54.926;73.496;2023-11-22T05:20:59;3.50;;;3.20;;
59907;SDS011;61804;54.926;73.496;2023-11-22T05:23:26;11.13;;;7.55;;
59907;SDS011;61804;54.926;73.496;2023-11-22T05:25:53;19.50;;;10.73;;
59907;SDS011;61804;54.926;73.496;2023-11-22T05:28:21;12.68;;;4.97;;
59907;SDS011;61804;54.926;73.496;2023-11-22T05:30:48;3.20;;;2.90;;
59907;SDS011;61804;54.926;73.496;2023-11-22T05:33:15;4.28;;;3.47;;
59907;SDS011;61804;54.926;73.496;2023-11-22T05:35:42;4.38;;;2.58;;
59907;SDS011;61804;54.926;73.496;2023-11-22T05:38:10;6.82;;;4.18;;
59907;SDS011;61804;54.926;73.496;2023-11-22T05:40:37;5.32;;;4.30;;
59907;SDS011;61804;54.926;73.496;2023-11-22T05:43:05;6.78;;;5.03;;
59907;SDS011;61804;54.926;73.496;2023-11-22T05:45:35;4.15;;;2.97;;
59907;SDS011;61804;54.926;73.496;2023-11-22T05:48:03;6.70;;;3.03;;
59907;SDS011;61804;54.926;73.496;2023-11-22T05:50:30;9.73;;;5.35;;
59907;SDS011;61804;54.926;73.496;2023-11-22T05:52:58;5.43;;;3.88;;
59907;SDS011;61804;54.926;73.496;2023-11-22T05:55:25;6.97;;;4.80;;
59907;SDS011;61804;54.926;73.496;2023-11-22T05:57:52;5.28;;;3.90;;
59907;SDS011;61804;54.926;73.496;2023-11-22T06:00:20;3.55;;;2.53;;
59907;SDS011;61804;54.926;73.496;2023-11-22T06:02:47;3.08;;;2.72;;
59907;SDS011;61804;54.926;73.496;2023-11-22T06:05:14;5.80;;;2.40;;
59907;SDS011;61804;54.926;73.496;2023-11-22T06:07:42;4.88;;;2.70;;
59907;SDS011;61804;54.926;73.496;2023-11-22T06:10:10;3.30;;;2.55;;
59907;SDS011;61804;54.926;73.496;2023-11-22T06:12:38;7.22;;;4.22;;
59907;SDS011;61804;54.926;73.496;2023-11-22T06:15:06;6.20;;;2.47;;
59907;SDS011;61804;54.926;73.496;2023-11-22T06:17:34;2.15;;;1.95;;
59907;SDS011;61804;54.926;73.496;2023-11-22T06:20:02;2.28;;;2.08;;
59907;SDS011;61804;54.926;73.496;2023-11-22T06:22:29;5.03;;;2.60;;
59907;SDS011;61804;54.926;73.496;2023-11-22T06:24:58;4.60;;;2.22;;
59907;SDS011;61804;54.926;73.496;2023-11-22T06:27:25;1.83;;;1.73;;
59907;SDS011;61804;54.926;73.496;2023-11-22T06:29:53;3.60;;;1.90;;
59907;SDS011;61804;54.926;73.496;2023-11-22T06:32:20;1.75;;;1.65;;
59907;SDS011;61804;54.926;73.496;2023-11-22T06:34:47;2.72;;;2.40;;
59907;SDS011;61804;54.926;73.496;2023-11-22T06:37:15;2.05;;;1.92;;
59907;SDS011;61804;54.926;73.496;2023-11-22T06:39:42;6.07;;;1.80;;
59907;SDS011;61804;54.926;73.496;2023-11-22T06:42:09;10.50;;;2.40;;
59907;SDS011;61804;54.926;73.496;2023-11-22T06:44:37;2.42;;;2.20;;
59907;SDS011;61804;54.926;73.496;2023-11-22T06:47:05;3.63;;;2.50;;
59907;SDS011;61804;54.926;73.496;2023-11-22T06:49:34;4.35;;;1.58;;
59907;SDS011;61804;54.926;73.496;2023-11-22T06:52:02;3.97;;;2.50;;
59907;SDS011;61804;54.926;73.496;2023-11-22T06:54:29;4.68;;;3.38;;
59907;SDS011;61804;54.926;73.496;2023-11-22T06:56:57;3.72;;;2.47;;
59907;SDS011;61804;54.926;73.496;2023-11-22T06:59:25;3.30;;;1.88;;
59907;SDS011;61804;54.926;73.496;2023-11-22T07:01:52;3.15;;;2.85;;
59907;SDS011;61804;54.926;73.496;2023-11-22T07:04:20;3.72;;;3.33;;
59907;SDS011;61804;54.926;73.496;2023-11-22T07:06:48;3.75;;;2.65;;
59907;SDS011;61804;54.926;73.496;2023-11-22T07:09:15;2.20;;;1.98;;
59907;SDS011;61804;54.926;73.496;2023-11-22T07:11:43;8.05;;;3.83;;
59907;SDS011;61804;54.926;73.496;2023-11-22T07:14:11;5.72;;;2.67;;
59907;SDS011;61804;54.926;73.496;2023-11-22T07:16:38;4.35;;;2.83;;
59907;SDS011;61804;54.926;73.496;2023-11-22T07:19:06;6.18;;;4.00;;
59907;SDS011;61804;54.926;73.496;2023-11-22T07:21:33;3.50;;;2.50;;
59907;SDS011;61804;54.926;73.496;2023-11-22T07:24:04;4.32;;;2.80;;
59907;SDS011;61804;54.926;73.496;2023-11-22T07:26:33;5.93;;;2.72;;
59907;SDS011;61804;54.926;73.496;2023-11-22T07:29:00;4.18;;;3.22;;
59907;SDS011;61804;54.926;73.496;2023-11-22T07:31:28;4.20;;;2.95;;
59907;SDS011;61804;54.926;73.496;2023-11-22T07:33:56;15.52;;;9.07;;
59907;SDS011;61804;54.926;73.496;2023-11-22T07:36:24;6.90;;;4.88;;
59907;SDS011;61804;54.926;73.496;2023-11-22T07:38:52;4.25;;;3.47;;
59907;SDS011;61804;54.926;73.496;2023-11-22T07:41:20;7.43;;;4.50;;
59907;SDS011;61804;54.926;73.496;2023-11-22T07:43:48;8.90;;;5.22;;
59907;SDS011;61804;54.926;73.496;2023-11-22T07:46:16;7.40;;;4.65;;
59907;SDS011;61804;54.926;73.496;2023-11-22T07:48:45;7.63;;;5.28;;
59907;SDS011;61804;54.926;73.496;2023-11-22T07:51:13;6.25;;;4.07;;
59907;SDS011;61804;54.926;73.496;2023-11-22T07:53:43;10.20;;;5.60;;
59907;SDS011;61804;54.926;73.496;2023-11-22T07:56:13;16.15;;;9.02;;
59907;SDS011;61804;54.926;73.496;2023-11-22T07:58:41;24.83;;;9.82;;
59907;SDS011;61804;54.926;73.496;2023-11-22T08:01:08;8.50;;;5.38;;
59907;SDS011;61804;54.926;73.496;2023-11-22T08:03:40;12.70;;;6.75;;
59907;SDS011;61804;54.926;73.496;2023-11-22T08:06:12;9.52;;;5.00;;
59907;SDS011;61804;54.926;73.496;2023-11-22T08:08:39;7.63;;;5.35;;
59907;SDS011;61804;54.926;73.496;2023-11-22T08:11:07;7.10;;;4.15;;
59907;SDS011;61804;54.926;73.496;2023-11-22T08:13:41;5.53;;;4.00;;
59907;SDS011;61804;54.926;73.496;2023-11-22T08:16:12;6.18;;;4.63;;
59907;SDS011;61804;54.926;73.496;2023-11-22T08:18:40;6.22;;;3.88;;
59907;SDS011;61804;54.926;73.496;2023-11-22T08:21:09;7.97;;;4.53;;
59907;SDS011;61804;54.926;73.496;2023-11-22T08:23:36;4.10;;;3.70;;
59907;SDS011;61804;54.926;73.496;2023-11-22T08:26:05;7.72;;;5.10;;
59907;SDS011;61804;54.926;73.496;2023-11-22T08:28:35;7.55;;;3.78;;
59907;SDS011;61804;54.926;73.496;2023-11-22T08:31:03;5.10;;;3.78;;
59907;SDS011;61804;54.926;73.496;2023-11-22T08:33:36;14.65;;;5.00;;
59907;SDS011;61804;54.926;73.496;2023-11-22T08:36:07;7.05;;;3.95;;
59907;SDS011;61804;54.926;73.496;2023-11-22T08:38:35;5.10;;;4.60;;
59907;SDS011;61804;54.926;73.496;2023-11-22T08:41:03;5.13;;;4.28;;
59907;SDS011;61804;54.926;73.496;2023-11-22T08:43:32;16.27;;;6.05;;
59907;SDS011;61804;54.926;73.496;2023-11-22T08:46:01;8.45;;;6.13;;
59907;SDS011;61804;54.926;73.496;2023-11-22T08:48:31;8.63;;;5.03;;
59907;SDS011;61804;54.926;73.496;2023-11-22T08:51:00;7.40;;;5.07;;
59907;SDS011;61804;54.926;73.496;2023-11-22T08:53:28;4.97;;;4.20;;
59907;SDS011;61804;54.926;73.496;2023-11-22T08:55:57;5.07;;;3.92;;
59907;SDS011;61804;54.926;73.496;2023-11-22T08:58:24;5.00;;;3.95;;
59907;SDS011;61804;54.926;73.496;2023-11-22T09:00:51;7.10;;;5.63;;
59907;SDS011;61804;54.926;73.496;2023-11-22T09:03:20;6.03;;;4.45;;
59907;SDS011;61804;54.926;73.496;2023-11-22T09:05:47;7.63;;;4.65;;
59907;SDS011;61804;54.926;73.496;2023-11-22T09:08:15;7.55;;;4.22;;
59907;SDS011;61804;54.926;73.496;2023-11-22T09:10:43;5.90;;;3.90;;
59907;SDS011;61804;54.926;73.496;2023-11-22T09:13:11;6.95;;;3.30;;
59907;SDS011;61804;54.926;73.496;2023-11-22T09:15:43;6.97;;;3.92;;
59907;SDS011;61804;54.926;73.496;2023-11-22T09:18:11;6.30;;;4.55;;
59907;SDS011;61804;54.926;73.496;2023-11-22T09:20:39;8.55;;;5.13;;
59907;SDS011;61804;54.926;73.496;2023-11-22T09:23:06;9.32;;;5.35;;
59907;SDS011;61804;54.926;73.496;2023-11-22T09:25:33;11.15;;;6.35;;
59907;SDS011;61804;54.926;73.496;2023-11-22T09:28:02;9.98;;;5.57;;
59907;SDS011;61804;54.926;73.496;2023-11-22T09:30:30;10.90;;;7.68;;
59907;SDS011;61804;54.926;73.496;2023-11-22T09:33:12;7.65;;;4.72;;
59907;SDS011;61804;54.926;73.496;2023-11-22T09:35:44;7.70;;;4.80;;
59907;SDS011;61804;54.926;73.496;2023-11-22T09:38:12;8.75;;;4.53;;
59907;SDS011;61804;54.926;73.496;2023-11-22T09:40:43;10.35;;;4.45;;
59907;SDS011;61804;54.926;73.496;2023-11-22T09:43:13;6.43;;;3.30;;
59907;SDS011;61804;54.926;73.496;2023-11-22T09:45:44;8.70;;;4.32;;
59907;SDS011;61804;54.926;73.496;2023-11-22T09:48:15;10.75;;;4.80;;
59907;SDS011;61804;54.926;73.496;2023-11-22T09:51:04;6.53;;;4.75;;
59907;SDS011;61804;54.926;73.496;2023-11-22T09:53:50;7.60;;;3.60;;
59907;SDS011;61804;54.926;73.496;2023-11-22T09:56:21;6.50;;;4.25;;
59907;SDS011;61804;54.926;73.496;2023-11-22T09:58:49;7.55;;;5.65;;
59907;SDS011;61804;54.926;73.496;2023-11-22T10:01:18;13.00;;;7.45;;
59907;SDS011;61804;54.926;73.496;2023-11-22T10:03:46;10.18;;;5.68;;
59907;SDS011;61804;54.926;73.496;2023-11-22T10:06:14;7.50;;;5.43;;
59907;SDS011;61804;54.926;73.496;2023-11-22T10:08:42;10.60;;;6.05;;
59907;SDS011;61804;54.926;73.496;2023-11-22T10:11:10;8.98;;;6.57;;
59907;SDS011;61804;54.926;73.496;2023-11-22T10:13:39;12.18;;;5.45;;
59907;SDS011;61804;54.926;73.496;2023-11-22T10:16:10;12.60;;;7.60;;
59907;SDS011;61804;54.926;73.496;2023-11-22T10:18:44;13.85;;;6.72;;
59907;SDS011;61804;54.926;73.496;2023-11-22T10:21:25;11.52;;;6.47;;
59907;SDS011;61804;54.926;73.496;2023-11-22T10:23:54;15.27;;;8.88;;
59907;SDS011;61804;54.926;73.496;2023-11-22T10:26:24;11.93;;;6.05;;
59907;SDS011;61804;54.926;73.496;2023-11-22T10:28:54;14.23;;;7.25;;
59907;SDS011;61804;54.926;73.496;2023-11-22T10:31:22;12.65;;;7.55;;
59907;SDS011;61804;54.926;73.496;2023-11-22T10:33:50;9.35;;;6.63;;
59907;SDS011;61804;54.926;73.496;2023-11-22T10:36:17;9.60;;;7.25;;
59907;SDS011;61804;54.926;73.496;2023-11-22T10:38:48;14.90;;;8.00;;
59907;SDS011;61804;54.926;73.496;2023-11-22T10:41:14;9.75;;;5.50;;
59907;SDS011;61804;54.926;73.496;2023-11-22T10:43:42;6.07;;;4.78;;
59907;SDS011;61804;54.926;73.496;2023-11-22T10:46:13;8.00;;;5.78;;
59907;SDS011;61804;54.926;73.496;2023-11-22T10:48:41;29.77;;;14.02;;
59907;SDS011;61804;54.926;73.496;2023-11-22T10:51:08;8.15;;;6.20;;
59907;SDS011;61804;54.926;73.496;2023-11-22T10:53:38;10.23;;;5.05;;
59907;SDS011;61804;54.926;73.496;2023-11-22T10:58:47;7.50;;;5.10;;
59907;SDS011;61804;54.926;73.496;2023-11-22T11:01:24;9.20;;;5.05;;
59907;SDS011;61804;54.926;73.496;2023-11-22T11:04:01;8.65;;;4.78;;
59907;SDS011;61804;54.926;73.496;2023-11-22T11:06:34;16.08;;;5.75;;
59907;SDS011;61804;54.926;73.496;2023-11-22T11:09:05;6.95;;;5.95;;
59907;SDS011;61804;54.926;73.496;2023-11-22T11:11:36;11.82;;;6.80;;
59907;SDS011;61804;54.926;73.496;2023-11-22T11:14:03;16.98;;;10.00;;
59907;SDS011;61804;54.926;73.496;2023-11-22T11:16:34;21.25;;;13.32;;
59907;SDS011;61804;54.926;73.496;2023-11-22T11:19:04;27.30;;;14.45;;
59907;SDS011;61804;54.926;73.496;2023-11-22T11:21:32;24.48;;;12.27;;
59907;SDS011;61804;54.926;73.496;2023-11-22T11:24:00;34.67;;;17.30;;
59907;SDS011;61804;54.926;73.496;2023-11-22T11:26:33;26.48;;;10.00;;
59907;SDS011;61804;54.926;73.496;2023-11-22T11:29:04;14.95;;;9.25;;
59907;SDS011;61804;54.926;73.496;2023-11-22T11:31:33;13.25;;;7.40;;
59907;SDS011;61804;54.926;73.496;2023-11-22T11:34:07;19.33;;;9.95;;
59907;SDS011;61804;54.926;73.496;2023-11-22T11:36:36;9.20;;;5.57;;
59907;SDS011;61804;54.926;73.496;2023-11-22T11:39:07;18.10;;;6.53;;
59907;SDS011;61804;54.926;73.496;2023-11-22T11:41:41;16.92;;;6.15;;
59907;SDS011;61804;54.926;73.496;2023-11-22T11:44:09;9.68;;;5.72;;
59907;SDS011;61804;54.926;73.496;2023-11-22T11:46:37;7.13;;;4.78;;
59907;SDS011;61804;54.926;73.496;2023-11-22T11:49:08;12.80;;;6.82;;
59907;SDS011;61804;54.926;73.496;2023-11-22T11:51:39;7.20;;;4.90;;
59907;SDS011;61804;54.926;73.496;2023-11-22T11:54:08;30.55;;;5.30;;
59907;SDS011;61804;54.926;73.496;2023-11-22T11:56:38;9.18;;;5.57;;
59907;SDS011;61804;54.926;73.496;2023-11-22T11:59:05;4.45;;;2.97;;
59907;SDS011;61804;54.926;73.496;2023-11-22T12:01:33;6.18;;;2.67;;
59907;SDS011;61804;54.926;73.496;2023-11-22T12:04:01;8.35;;;5.32;;
59907;SDS011;61804;54.926;73.496;2023-11-22T12:06:29;6.35;;;4.47;;
59907;SDS011;61804;54.926;73.496;2023-11-22T12:08:58;4.00;;;3.08;;
59907;SDS011;61804;54.926;73.496;2023-11-22T12:11:25;7.22;;;3.85;;
59907;SDS011;61804;54.926;73.496;2023-11-22T12:13:52;5.82;;;3.33;;
59907;SDS011;61804;54.926;73.496;2023-11-22T12:16:23;3.92;;;2.60;;
59907;SDS011;61804;54.926;73.496;2023-11-22T12:19:04;3.95;;;2.40;;
59907;SDS011;61804;54.926;73.496;2023-11-22T12:21:32;5.05;;;2.80;;
59907;SDS011;61804;54.926;73.496;2023-11-22T12:24:00;3.50;;;2.08;;
59907;SDS011;61804;54.926;73.496;2023-11-22T12:26:28;4.43;;;3.83;;
59907;SDS011;61804;54.926;73.496;2023-11-22T12:28:58;5.90;;;2.88;;
59907;SDS011;61804;54.926;73.496;2023-11-22T12:31:25;3.58;;;2.80;;
59907;SDS011;61804;54.926;73.496;2023-11-22T12:33:56;5.18;;;3.20;;
59907;SDS011;61804;54.926;73.496;2023-11-22T12:36:30;2.67;;;1.65;;
59907;SDS011;61804;54.926;73.496;2023-11-22T12:38:58;2.65;;;2.15;;
59907;SDS011;61804;54.926;73.496;2023-11-22T12:41:26;3.97;;;2.55;;
59907;SDS011;61804;54.926;73.496;2023-11-22T12:44:28;8.02;;;2.88;;
59907;SDS011;61804;54.926;73.496;2023-11-22T12:47:06;16.08;;;5.68;;
59907;SDS011;61804;54.926;73.496;2023-11-22T12:49:44;10.15;;;4.95;;
59907;SDS011;61804;54.926;73.496;2023-11-22T12:52:14;6.28;;;4.18;;
59907;SDS011;61804;54.926;73.496;2023-11-22T12:54:41;3.25;;;2.03;;
59907;SDS011;61804;54.926;73.496;2023-11-22T12:57:12;4.78;;;3.30;;
59907;SDS011;61804;54.926;73.496;2023-11-22T12:59:39;4.05;;;2.22;;
59907;SDS011;61804;54.926;73.496;2023-11-22T13:02:07;5.95;;;3.50;;
59907;SDS011;61804;54.926;73.496;2023-11-22T13:04:35;5.60;;;2.85;;
59907;SDS011;61804;54.926;73.496;2023-11-22T13:07:02;10.63;;;5.35;;
59907;SDS011;61804;54.926;73.496;2023-11-22T13:09:41;5.75;;;4.53;;
59907;SDS011;61804;54.926;73.496;2023-11-22T13:12:09;6.03;;;3.42;;
59907;SDS011;61804;54.926;73.496;2023-11-22T13:14:48;4.45;;;2.58;;
59907;SDS011;61804;54.926;73.496;2023-11-22T13:17:17;5.20;;;2.92;;
59907;SDS011;61804;54.926;73.496;2023-11-22T13:19:45;8.57;;;5.35;;
59907;SDS011;61804;54.926;73.496;2023-11-22T13:22:27;2.50;;;2.10;;
59907;SDS011;61804;54.926;73.496;2023-11-22T13:24:55;4.07;;;2.88;;
59907;SDS011;61804;54.926;73.496;2023-11-22T13:27:24;3.28;;;2.28;;
59907;SDS011;61804;54.926;73.496;2023-11-22T13:29:52;5.22;;;3.50;;
59907;SDS011;61804;54.926;73.496;2023-11-22T13:32:31;2.38;;;1.90;;
59907;SDS011;61804;54.926;73.496;2023-11-22T13:34:59;5.00;;;3.15;;
59907;SDS011;61804;54.926;73.496;2023-11-22T13:37:26;3.22;;;2.33;;
59907;SDS011;61804;54.926;73.496;2023-11-22T13:39:57;3.50;;;3.20;;
59907;SDS011;61804;54.926;73.496;2023-11-22T13:42:24;6.43;;;2.47;;
59907;SDS011;61804;54.926;73.496;2023-11-22T13:44:51;10.63;;;4.53;;
59907;SDS011;61804;54.926;73.496;2023-11-22T13:47:19;5.35;;;4.30;;
59907;SDS011;61804;54.926;73.496;2023-11-22T13:49:47;4.68;;;3.85;;
59907;SDS011;61804;54.926;73.496;2023-11-22T13:52:14;7.25;;;3.95;;
59907;SDS011;61804;54.926;73.496;2023-11-22T13:54:41;7.15;;;5.47;;
59907;SDS011;61804;54.926;73.496;2023-11-22T13:57:09;7.63;;;4.18;;
59907;SDS011;61804;54.926;73.496;2023-11-22T13:59:36;4.82;;;3.97;;
59907;SDS011;61804;54.926;73.496;2023-11-22T14:02:04;3.38;;;2.72;;
59907;SDS011;61804;54.926;73.496;2023-11-22T14:04:31;5.13;;;3.80;;
59907;SDS011;61804;54.926;73.496;2023-11-22T14:06:58;4.22;;;3.30;;
59907;SDS011;61804;54.926;73.496;2023-11-22T14:09:26;8.32;;;3.97;;
59907;SDS011;61804;54.926;73.496;2023-11-22T14:11:53;7.68;;;3.28;;
59907;SDS011;61804;54.926;73.496;2023-11-22T14:14:20;3.80;;;3.15;;
59907;SDS011;61804;54.926;73.496;2023-11-22T14:16:48;15.38;;;4.43;;
59907;SDS011;61804;54.926;73.496;2023-11-22T14:19:15;5.82;;;2.30;;
59907;SDS011;61804;54.926;73.496;2023-11-22T14:21:43;4.13;;;2.78;;
59907;SDS011;61804;54.926;73.496;2023-11-22T14:24:10;7.88;;;5.72;;
59907;SDS011;61804;54.926;73.496;2023-11-22T14:26:37;9.23;;;4.22;;
59907;SDS011;61804;54.926;73.496;2023-11-22T14:29:05;12.40;;;5.35;;
59907;SDS011;61804;54.926;73.496;2023-11-22T14:31:33;8.95;;;5.00;;
59907;SDS011;61804;54.926;73.496;2023-11-22T14:34:00;5.93;;;4.53;;
59907;SDS011;61804;54.926;73.496;2023-11-22T14:36:32;7.32;;;4.13;;
59907;SDS011;61804;54.926;73.496;2023-11-22T14:39:00;4.07;;;3.03;;
59907;SDS011;61804;54.926;73.496;2023-11-22T14:41:27;9.98;;;4.68;;
59907;SDS011;61804;54.926;73.496;2023-11-22T14:43:57;5.45;;;3.58;;